KCBE/CBE METAR and TAF weather

Enter ICAO airport designator
Station Type Date Time Source
KCBE METAR 2019/10/18 06:15 UTC NOAA

KCBE 180615Z AUTO 30006KT 10SM BKN039 BKN047 09/02 A2996 RMK AO2 T00870016


Station Type Date Time Source
KCBE Decoded METAR 2019/10/18 06:15 UTC NOAA

Cumberland, Greater Cumberland Regional Airport, MD, United States (KCBE) 39-36-55N 078-45-39W
Oct 18, 2019 - 02:15 AM EDT / 2019.10.18 0615 UTC
Wind: from the WNW (300 degrees) at 7 MPH (6 KT):0
Visibility: 10 mile(s):0
Sky conditions: mostly cloudy
Temperature: 47.7 F (8.7 C)
Dew Point: 34.9 F (1.6 C)
Relative Humidity: 60%
Pressure (altimeter): 29.96 in. Hg (1014 hPa)
ob: KCBE 180615Z AUTO 30006KT 10SM BKN039 BKN047 09/02 A2996 RMK AO2 T00870016
cycle: 6

Station Type Date Time Source
KCBE TAF UTC NOAA

Error!

Example: see airport list